Acadiana Regional Airport
KARA : now visible

Airfield :











YOU CAN JOIN US ON...

 
LOGIN :

Register | Disclaimer

   EN    FR    IT 

 









Legend :    VFR   Marginal VFR   IFR   Intensive IFR   Very Intensive IFR
Visi :
Ceiling :
>= 8 km
>= 3000ft
5 to 8 km
1000 to 3000 ft
1500m to 5 km
500 to 1000 ft
800 to 1500m
200 to 500 ft
< 800m
< 200 ft
Symbols :   Thunderstorms  Fog  Heavy snow  Heavy precipitations  Wind > 20 kt






- Airport Elevation : 24 ft


KARA - Acadiana Regional

CURRENT METAR :
  • 211253Z 02015KT 10SM BKN011 BKN027 13/11 A3008 RMK AO2 SLP185 T01330111

EXPIRED METARs :
  • 211225Z 36015KT 10SM SCT007 OVC013 13/11 A3008 RMK AO2 T01330111
  • 211153Z 36012KT 9SM OVC008 13/12 A3006 RMK AO2 PK WND 34028/1134 RAB04E17 CIG 006V012 SLP177 P0000 60000 T01280117 10150 20128 53018
  • 211117Z 34013G19KT 10SM BKN007 BKN120 14/13 A3004 RMK AO2 RAB04E17 CIG 005V009 PRESRR P0000 T01390128
  • 211053Z 34007KT 10SM FEW009 BKN120 14/12 A3002 RMK AO2 SLP166 T01390122
  • 210953Z AUTO 04006KT 10SM BKN110 14/12 A2997 RMK AO2 SLP147 T01390122
  • 210853Z AUTO 10007KT 10SM SCT120 13/12 A3000 RMK AO2 RAB06E20 SLP159 P0000 60000 T01330122 58026

TAF KARA
Valid from the 21 at 12:00 until the 22 at 12:00 UTC


211127Z 2112/2212 35012G19KT P6SM VCSH OVC007
FM211600 02014G21KT P6SM BKN011
FM211900 02015G22KT P6SM BKN022
FM212100 02014G22KT P6SM BKN035
FM220300 03008KT P6SM SKC
KZHU FIR / North America



MET'MAP, your aeronautical weather chart ! - Copyright ORBIFLY December 2007 - Disclaimer

ORBIFLY MET'MAP TEAM :

Programming & Development : Alexandra Zaïnal
Original concept : Baudouin d'Aumeries
Technical & hardware support : Manuel Goepfert
Assistance : Marc-Olivier Méhu




SOURCES & CREDITS :

   NOAA       Earth
Advisory